Time;durP1;ratioP1;P1;durP2;ratioP2;P2;SDS_P1;SDS_P2;PMS_P1;PMS_P2;Temp;Humidity;BMP_temperature;BMP_pressure;BME280_temperature;BME280_humidity;BME280_pressure;Samples;Min_cycle;Max_cycle;Signal;HPM_P1;HPM_P2
2022/01/07 00:00:00;;;;;;;6.43;3.10;;;5.70;99.90;;;;;;5033357;28;20170;-69
2022/01/07 00:02:26;;;;;;;8.60;3.37;;;5.70;99.90;;;;;;5032866;28;20189;-69
2022/01/07 00:04:51;;;;;;;7.00;3.10;;;5.70;99.90;;;;;;5033015;28;20182;-68
2022/01/07 00:07:17;;;;;;;5.97;2.93;;;5.70;99.90;;;;;;5033125;28;20545;-67
2022/01/07 00:09:43;;;;;;;4.93;3.07;;;5.70;99.90;;;;;;5033232;28;20170;-69
2022/01/07 00:12:09;;;;;;;8.80;3.43;;;5.70;99.90;;;;;;5033052;28;20183;-70
2022/01/07 00:14:34;;;;;;;7.37;3.43;;;5.60;99.90;;;;;;5032912;28;20185;-69
2022/01/07 00:17:00;;;;;;;7.40;3.20;;;5.60;99.90;;;;;;5032992;28;20174;-69
2022/01/07 00:19:26;;;;;;;6.13;3.47;;;5.60;99.90;;;;;;5033000;28;20178;-70
2022/01/07 00:21:52;;;;;;;5.63;2.90;;;5.60;99.90;;;;;;5032952;28;20174;-69
2022/01/07 00:24:17;;;;;;;8.60;3.33;;;5.60;99.90;;;;;;5032733;28;20218;-68
2022/01/07 00:26:43;;;;;;;8.70;3.50;;;5.60;99.90;;;;;;5033032;28;20660;-69
2022/01/07 00:29:09;;;;;;;7.23;2.63;;;5.60;99.90;;;;;;5033160;28;20177;-68
2022/01/07 00:31:34;;;;;;;8.57;3.40;;;5.60;99.90;;;;;;5032475;28;20185;-68
2022/01/07 00:34:00;;;;;;;8.27;3.20;;;5.60;99.90;;;;;;5032420;28;20681;-68
2022/01/07 00:36:26;;;;;;;6.90;3.20;;;5.60;99.90;;;;;;5033123;28;20170;-69
2022/01/07 00:38:52;;;;;;;7.03;3.10;;;5.80;99.90;;;;;;5032951;28;20661;-68
2022/01/07 00:41:17;;;;;;;5.40;2.60;;;5.60;99.90;;;;;;5032917;28;20266;-68
2022/01/07 00:43:43;;;;;;;5.70;3.10;;;5.60;99.90;;;;;;5032604;28;20181;-68
2022/01/07 00:46:09;;;;;;;5.80;3.40;;;5.60;99.90;;;;;;5032711;28;20197;-68
2022/01/07 00:48:34;;;;;;;7.07;3.07;;;5.60;99.90;;;;;;5032476;28;20252;-68
2022/01/07 00:51:00;;;;;;;6.30;3.57;;;5.70;99.90;;;;;;5031717;28;20178;-68
2022/01/07 00:53:25;;;;;;;8.40;3.30;;;5.60;99.90;;;;;;5032507;28;20248;-68
2022/01/07 00:55:51;;;;;;;11.47;3.30;;;5.60;99.90;;;;;;5033895;28;20202;-69
2022/01/07 00:58:17;;;;;;;9.53;3.17;;;5.60;99.90;;;;;;5036590;28;20174;-69
2022/01/07 01:00:42;;;;;;;4.63;3.20;;;5.70;99.90;;;;;;5036271;28;20247;-69
2022/01/07 01:03:08;;;;;;;8.03;3.37;;;5.70;99.90;;;;;;5035944;28;20209;-68
2022/01/07 01:05:35;;;;;;;6.93;2.93;;;5.60;99.90;;;;;;5036609;28;20200;-68
2022/01/07 01:08:01;;;;;;;5.40;3.27;;;5.60;99.90;;;;;;5036342;28;20319;-69
2022/01/07 01:10:27;;;;;;;6.33;3.40;;;5.60;99.90;;;;;;5034967;28;20223;-68
2022/01/07 01:12:54;;;;;;;7.40;3.50;;;5.60;99.90;;;;;;5035817;28;20201;-68
2022/01/07 01:15:23;;;;;;;6.40;3.40;;;5.60;99.90;;;;;;5036069;28;20185;-68
2022/01/07 01:17:50;;;;;;;7.90;4.07;;;5.60;99.90;;;;;;5035863;28;20180;-68
2022/01/07 01:20:16;;;;;;;5.90;3.73;;;5.50;99.90;;;;;;5036070;28;20178;-68
2022/01/07 01:22:42;;;;;;;11.40;4.20;;;5.40;99.90;;;;;;5035912;28;20261;-67
2022/01/07 01:25:08;;;;;;;13.70;4.00;;;5.30;99.90;;;;;;5035829;28;20677;-68
2022/01/07 01:27:34;;;;;;;8.70;3.73;;;5.20;99.90;;;;;;5035707;28;20170;-67
2022/01/07 01:30:02;;;;;;;6.80;4.13;;;5.20;99.90;;;;;;5035935;28;20181;-69
2022/01/07 01:32:28;;;;;;;7.57;4.13;;;5.10;99.90;;;;;;5035202;28;20186;-68
2022/01/07 01:34:53;;;;;;;11.07;4.37;;;5.10;99.90;;;;;;5034881;28;20174;-68
2022/01/07 01:37:19;;;;;;;6.60;3.53;;;5.00;99.90;;;;;;5035835;28;20693;-69
2022/01/07 01:39:45;;;;;;;7.93;4.23;;;5.00;99.90;;;;;;5035987;28;20256;-69
2022/01/07 01:42:10;;;;;;;5.83;4.37;;;4.90;99.90;;;;;;5035632;28;20170;-68
2022/01/07 01:44:36;;;;;;;8.23;4.40;;;4.90;99.90;;;;;;5035025;28;20174;-70
2022/01/07 01:47:02;;;;;;;11.83;4.60;;;4.70;99.90;;;;;;5034468;28;20539;-69
2022/01/07 01:49:28;;;;;;;12.27;4.87;;;4.70;99.90;;;;;;5035737;28;20618;-69
2022/01/07 01:51:54;;;;;;;6.37;4.10;;;4.70;99.90;;;;;;5035424;28;20626;-69
2022/01/07 01:54:20;;;;;;;13.70;5.03;;;4.70;99.90;;;;;;5034125;28;20221;-70
2022/01/07 01:56:46;;;;;;;11.13;4.60;;;4.60;99.90;;;;;;5035306;28;20166;-69
2022/01/07 01:59:11;;;;;;;7.27;4.93;;;4.60;99.90;;;;;;5035039;28;20174;-69
2022/01/07 02:01:38;;;;;;;12.07;5.70;;;4.60;99.90;;;;;;5035422;28;20169;-68
2022/01/07 02:04:04;;;;;;;9.53;5.57;;;4.60;99.90;;;;;;5035236;28;20703;-69
2022/01/07 02:06:30;;;;;;;12.97;6.50;;;4.60;99.90;;;;;;5034264;28;20173;-69
2022/01/07 02:08:56;;;;;;;12.90;6.50;;;4.60;99.90;;;;;;5035442;28;20174;-68
2022/01/07 02:11:21;;;;;;;12.10;6.07;;;4.60;99.90;;;;;;5034845;28;20174;-68
2022/01/07 02:13:48;;;;;;;8.27;5.87;;;4.50;99.90;;;;;;5034529;28;20676;-69
2022/01/07 02:16:15;;;;;;;9.67;5.70;;;4.50;99.90;;;;;;5035037;28;20205;-69
2022/01/07 02:18:44;;;;;;;8.43;5.33;;;4.60;99.90;;;;;;5034981;28;20630;-69
2022/01/07 02:21:10;;;;;;;7.40;5.63;;;4.60;99.90;;;;;;5035053;28;20249;-69
2022/01/07 02:23:36;;;;;;;9.33;5.80;;;4.50;99.90;;;;;;5034951;28;20224;-68
2022/01/07 02:26:02;;;;;;;7.27;5.70;;;4.40;99.90;;;;;;5034530;28;20402;-70
2022/01/07 02:28:29;;;;;;;9.77;5.77;;;4.50;99.90;;;;;;5034399;28;20170;-71
2022/01/07 02:30:55;;;;;;;9.47;5.83;;;4.50;99.90;;;;;;5033686;28;20178;-69
2022/01/07 02:33:20;;;;;;;9.77;5.73;;;4.50;99.90;;;;;;5034404;28;20205;-69
2022/01/07 02:35:46;;;;;;;6.97;5.40;;;4.40;99.90;;;;;;5034645;28;20181;-69
2022/01/07 02:38:15;;;;;;;8.10;5.70;;;4.40;99.90;;;;;;5034819;28;20184;-69
2022/01/07 02:40:42;;;;;;;9.00;5.77;;;4.30;99.90;;;;;;5034474;28;20174;-69
2022/01/07 02:43:08;;;;;;;8.23;5.80;;;4.30;99.90;;;;;;5034028;28;20174;-69
2022/01/07 02:45:34;;;;;;;9.53;6.33;;;4.30;99.90;;;;;;5034629;28;20158;-69
2022/01/07 02:48:02;;;;;;;11.30;6.00;;;4.30;99.90;;;;;;5034432;28;20660;-69
2022/01/07 02:50:33;;;;;;;10.27;6.50;;;4.20;99.90;;;;;;5034603;28;20169;-69
2022/01/07 02:53:00;;;;;;;8.50;6.57;;;4.20;99.90;;;;;;5034228;28;20300;-69
2022/01/07 02:55:28;;;;;;;9.37;6.73;;;4.20;99.90;;;;;;5034114;28;20265;-69
2022/01/07 02:57:54;;;;;;;11.00;7.37;;;4.30;99.90;;;;;;5034200;28;20169;-69
2022/01/07 03:00:20;;;;;;;10.67;6.50;;;4.30;99.90;;;;;;5034451;28;20249;-69
2022/01/07 03:02:48;;;;;;;8.27;6.20;;;4.30;99.90;;;;;;5033966;28;20637;-69
2022/01/07 03:05:15;;;;;;;11.27;6.60;;;4.30;99.90;;;;;;5033047;28;20656;-70
2022/01/07 03:07:42;;;;;;;10.77;6.50;;;4.30;99.90;;;;;;5034215;28;20181;-70
2022/01/07 03:10:09;;;;;;;8.80;5.70;;;4.40;99.90;;;;;;5034063;28;20169;-70
2022/01/07 03:12:36;;;;;;;10.10;6.20;;;4.40;99.90;;;;;;5033459;28;20197;-71
2022/01/07 03:15:04;;;;;;;9.73;5.90;;;4.40;99.90;;;;;;5034122;28;20174;-70
2022/01/07 03:17:30;;;;;;;9.93;5.97;;;4.40;99.90;;;;;;5033884;28;20181;-69
2022/01/07 03:19:55;;;;;;;9.37;5.77;;;4.50;99.90;;;;;;5033504;28;20182;-70
2022/01/07 03:22:21;;;;;;;6.70;6.10;;;4.60;99.90;;;;;;5033757;28;20568;-71
2022/01/07 03:24:47;;;;;;;10.17;6.27;;;4.50;99.90;;;;;;5033394;28;20256;-70
2022/01/07 03:27:12;;;;;;;7.93;6.27;;;4.60;99.90;;;;;;5033349;28;20224;-71
2022/01/07 03:29:38;;;;;;;7.50;5.70;;;4.60;99.90;;;;;;5033811;28;20186;-70
2022/01/07 03:32:04;;;;;;;8.93;6.50;;;4.60;99.90;;;;;;5033686;28;20236;-69
2022/01/07 03:34:29;;;;;;;9.33;6.30;;;4.60;99.90;;;;;;5033393;28;20279;-69
2022/01/07 03:36:55;;;;;;;9.27;6.20;;;4.60;99.90;;;;;;5033792;28;20176;-70
2022/01/07 03:39:21;;;;;;;10.23;6.30;;;4.60;99.90;;;;;;5033425;28;20536;-70
2022/01/07 03:41:46;;;;;;;11.53;6.50;;;4.60;99.90;;;;;;5033000;28;20254;-70
2022/01/07 03:44:12;;;;;;;9.83;6.73;;;4.60;99.90;;;;;;5033523;28;20226;-69
2022/01/07 03:46:38;;;;;;;7.83;6.77;;;4.60;99.90;;;;;;5033486;28;20178;-69
2022/01/07 03:49:03;;;;;;;9.33;6.77;;;4.50;99.90;;;;;;5033464;28;20181;-69
2022/01/07 03:51:29;;;;;;;8.00;7.13;;;4.60;99.90;;;;;;5033093;28;20185;-70
2022/01/07 03:53:55;;;;;;;8.97;7.57;;;4.50;99.90;;;;;;5031491;28;20295;-70
2022/01/07 03:56:21;;;;;;;12.63;7.20;;;4.60;99.90;;;;;;5033111;28;20178;-69
2022/01/07 03:58:47;;;;;;;13.10;7.77;;;4.60;99.90;;;;;;5033451;28;20652;-69
2022/01/07 04:01:13;;;;;;;11.03;7.57;;;4.60;99.90;;;;;;5033419;28;20188;-71
2022/01/07 04:03:39;;;;;;;14.50;8.33;;;4.70;99.90;;;;;;5033158;28;20186;-69
2022/01/07 04:06:05;;;;;;;14.07;7.50;;;4.60;99.90;;;;;;5032947;28;20506;-69
2022/01/07 04:08:31;;;;;;;11.10;7.97;;;4.60;99.90;;;;;;5033190;28;20166;-69
2022/01/07 04:10:56;;;;;;;11.83;7.80;;;4.60;99.90;;;;;;5032645;28;20170;-69
2022/01/07 04:13:22;;;;;;;9.63;7.20;;;4.60;99.90;;;;;;5032846;28;20213;-70
2022/01/07 04:15:48;;;;;;;14.67;8.23;;;4.60;99.90;;;;;;5033163;28;20193;-70
2022/01/07 04:18:13;;;;;;;15.13;8.00;;;4.70;99.90;;;;;;5033191;28;20173;-69
2022/01/07 04:20:39;;;;;;;12.93;7.97;;;4.70;99.90;;;;;;5032664;28;20642;-70
2022/01/07 04:23:07;;;;;;;11.37;7.73;;;4.80;99.90;;;;;;5032328;28;20178;-71
2022/01/07 04:25:33;;;;;;;13.50;8.23;;;4.70;99.90;;;;;;5032470;28;20217;-70
2022/01/07 04:28:01;;;;;;;11.77;8.47;;;4.80;99.90;;;;;;5033158;28;20165;-70
2022/01/07 04:30:29;;;;;;;12.13;7.80;;;4.80;99.90;;;;;;5032051;28;20170;-70
2022/01/07 04:32:56;;;;;;;12.10;7.80;;;4.80;99.90;;;;;;5036896;28;20250;-69
2022/01/07 04:35:24;;;;;;;10.40;7.53;;;4.90;99.90;;;;;;5036760;28;20178;-70
2022/01/07 04:37:50;;;;;;;14.97;7.63;;;4.90;99.90;;;;;;5036974;28;20247;-70
2022/01/07 04:40:17;;;;;;;11.03;8.40;;;5.00;99.90;;;;;;5036309;28;20166;-70
2022/01/07 04:42:43;;;;;;;13.03;7.60;;;5.00;99.90;;;;;;5036397;28;20205;-70
2022/01/07 04:45:10;;;;;;;11.53;7.60;;;4.90;99.90;;;;;;5036689;28;20185;-70
2022/01/07 04:47:36;;;;;;;13.23;7.60;;;4.90;99.90;;;;;;5036555;28;20240;-70
2022/01/07 04:50:09;;;;;;;12.50;8.43;;;5.00;99.90;;;;;;5036455;28;20170;-69
2022/01/07 04:52:35;;;;;;;13.37;8.63;;;5.00;99.90;;;;;;5035909;28;20232;-69
2022/01/07 04:55:01;;;;;;;13.87;8.90;;;5.10;99.90;;;;;;5035837;28;20174;-70
2022/01/07 04:57:27;;;;;;;14.83;8.63;;;5.10;99.90;;;;;;5036598;28;20162;-71
2022/01/07 04:59:52;;;;;;;12.40;8.77;;;5.10;99.90;;;;;;5036413;28;20537;-70
2022/01/07 05:02:20;;;;;;;13.37;9.33;;;5.10;99.90;;;;;;5036152;28;20216;-70
2022/01/07 05:04:46;;;;;;;14.03;8.80;;;5.10;99.90;;;;;;5035649;28;20189;-70
2022/01/07 05:07:12;;;;;;;12.40;9.43;;;5.10;99.90;;;;;;5036456;28;20209;-70
2022/01/07 05:09:38;;;;;;;14.53;9.17;;;5.10;99.90;;;;;;5035582;28;20213;-69
2022/01/07 05:12:04;;;;;;;14.40;8.83;;;5.10;99.90;;;;;;5036031;28;20181;-70
2022/01/07 05:14:30;;;;;;;16.77;9.20;;;5.20;99.90;;;;;;5036094;28;20220;-70
2022/01/07 05:16:58;;;;;;;13.67;8.87;;;5.20;99.90;;;;;;5035923;28;20170;-70
2022/01/07 05:19:24;;;;;;;10.93;8.90;;;5.20;99.90;;;;;;5035903;28;20185;-69
2022/01/07 05:21:50;;;;;;;17.23;9.03;;;5.20;99.90;;;;;;5035508;28;20180;-70
2022/01/07 05:24:15;;;;;;;16.63;9.20;;;5.20;99.90;;;;;;5034611;28;20226;-70
2022/01/07 05:26:41;;;;;;;16.60;9.63;;;5.30;99.90;;;;;;5034885;28;20656;-70
2022/01/07 05:29:07;;;;;;;13.07;9.23;;;5.20;99.90;;;;;;5034849;28;20189;-70
2022/01/07 05:31:33;;;;;;;13.67;10.13;;;5.30;99.90;;;;;;5034149;28;20181;-71
2022/01/07 05:33:58;;;;;;;16.20;8.83;;;5.30;99.90;;;;;;5034226;28;20308;-71
2022/01/07 05:36:24;;;;;;;15.50;9.37;;;5.30;99.90;;;;;;5034078;28;20169;-70
2022/01/07 05:38:50;;;;;;;14.53;9.03;;;5.30;99.90;;;;;;5032974;28;20228;-70
2022/01/07 05:41:16;;;;;;;14.50;8.63;;;5.30;99.90;;;;;;5034137;28;20665;-70
2022/01/07 05:43:42;;;;;;;15.53;9.03;;;5.30;99.90;;;;;;5034279;28;20265;-69
2022/01/07 05:46:10;;;;;;;12.63;8.80;;;5.30;99.90;;;;;;5034040;28;20205;-70
2022/01/07 05:48:36;;;;;;;15.47;8.90;;;5.30;99.90;;;;;;5033876;28;20664;-70
2022/01/07 05:51:02;;;;;;;15.50;9.77;;;5.30;99.90;;;;;;5034128;28;20197;-69
2022/01/07 05:53:27;;;;;;;13.53;8.93;;;5.40;99.90;;;;;;5033293;28;20241;-71
2022/01/07 05:55:53;;;;;;;14.03;8.20;;;5.40;99.90;;;;;;5034189;28;20182;-71
2022/01/07 05:58:18;;;;;;;14.70;8.63;;;5.40;99.90;;;;;;5034028;28;20170;-70
2022/01/07 06:00:44;;;;;;;15.27;8.60;;;5.40;99.90;;;;;;5034107;28;20626;-69
2022/01/07 06:03:10;;;;;;;22.43;8.77;;;5.40;99.90;;;;;;5032112;28;20514;-70
2022/01/07 06:05:35;;;;;;;16.50;8.00;;;5.40;99.90;;;;;;5033761;28;20269;-70
2022/01/07 06:08:01;;;;;;;15.07;8.47;;;5.40;99.90;;;;;;5033698;28;20569;-71
2022/01/07 06:10:26;;;;;;;12.83;8.43;;;5.50;99.90;;;;;;5033808;28;20178;-70
2022/01/07 06:12:52;;;;;;;11.93;8.37;;;5.50;99.90;;;;;;5031952;28;20228;-70
2022/01/07 06:15:18;;;;;;;16.17;8.73;;;5.60;99.90;;;;;;5033863;28;20258;-70
2022/01/07 06:17:43;;;;;;;13.13;8.23;;;5.60;99.90;;;;;;5033315;28;20170;-70
2022/01/07 06:20:10;;;;;;;16.23;8.83;;;5.60;99.90;;;;;;5033161;28;20170;-70
2022/01/07 06:22:36;;;;;;;16.40;8.10;;;5.60;99.90;;;;;;5032740;28;20166;-71
2022/01/07 06:25:03;;;;;;;17.03;8.50;;;5.70;99.90;;;;;;4995043;28;1114367;-71
2022/01/07 06:27:29;;;;;;;15.50;8.80;;;5.70;99.90;;;;;;5034126;28;20260;-71
2022/01/07 06:29:57;;;;;;;10.53;7.90;;;5.70;99.90;;;;;;5034496;28;20225;-71
2022/01/07 06:32:25;;;;;;;12.17;8.03;;;5.70;99.90;;;;;;5033993;28;20182;-70
2022/01/07 06:34:52;;;;;;;14.50;8.07;;;5.80;99.90;;;;;;5033989;28;20316;-71
2022/01/07 06:37:17;;;;;;;14.40;7.20;;;5.80;99.90;;;;;;5034276;28;20183;-70
2022/01/07 06:39:43;;;;;;;12.97;8.00;;;5.80;99.90;;;;;;5033446;28;20185;-70
2022/01/07 06:42:09;;;;;;;9.80;7.50;;;5.90;99.90;;;;;;5033880;28;20252;-70
2022/01/07 06:44:36;;;;;;;12.37;8.00;;;5.90;99.90;;;;;;5033939;28;20221;-70
2022/01/07 06:47:02;;;;;;;11.57;7.30;;;5.90;99.90;;;;;;5033908;28;20224;-69
2022/01/07 06:49:28;;;;;;;11.53;7.00;;;5.90;99.90;;;;;;5033323;28;20176;-70
2022/01/07 06:51:54;;;;;;;13.93;7.10;;;5.90;99.90;;;;;;5033835;28;20248;-70
2022/01/07 06:54:20;;;;;;;12.47;6.90;;;5.90;99.90;;;;;;5033031;28;20209;-70
2022/01/07 06:56:46;;;;;;;9.07;6.93;;;6.00;99.90;;;;;;5033564;28;20195;-70
2022/01/07 06:59:15;;;;;;;14.20;6.03;;;6.00;99.90;;;;;;5033705;28;20244;-70
2022/01/07 07:01:47;;;;;;;9.57;6.47;;;6.00;99.90;;;;;;5033709;28;20186;-71
2022/01/07 07:04:14;;;;;;;10.40;6.97;;;6.00;99.90;;;;;;5032337;28;20580;-69
2022/01/07 07:06:39;;;;;;;12.33;6.63;;;6.00;99.90;;;;;;5033739;28;20656;-69
2022/01/07 07:09:05;;;;;;;7.90;6.20;;;6.00;99.90;;;;;;5033415;28;20170;-69
2022/01/07 07:11:31;;;;;;;11.37;6.80;;;6.00;99.90;;;;;;5033328;28;20630;-70
2022/01/07 07:13:57;;;;;;;12.33;7.17;;;6.00;99.90;;;;;;5033049;28;20624;-70
2022/01/07 07:16:22;;;;;;;10.93;6.27;;;6.00;99.90;;;;;;5031912;28;20182;-70
2022/01/07 07:18:48;;;;;;;9.67;6.13;;;6.10;99.90;;;;;;5032967;28;20578;-70
2022/01/07 07:21:14;;;;;;;6.83;5.60;;;6.10;99.90;;;;;;5033175;28;20196;-71
2022/01/07 07:23:40;;;;;;;10.57;5.97;;;6.20;99.90;;;;;;5032559;28;20181;-69
2022/01/07 07:26:06;;;;;;;10.37;5.73;;;6.10;99.90;;;;;;5032561;28;20221;-69
2022/01/07 07:28:35;;;;;;;8.67;6.10;;;6.10;99.90;;;;;;5033416;28;20170;-69
2022/01/07 07:31:01;;;;;;;8.03;6.20;;;6.10;99.90;;;;;;5032938;28;20178;-69
2022/01/07 07:38:42;;;;;;;11.90;6.10;;;6.20;99.90;;;;;;5033070;28;20197;-70
2022/01/07 07:41:08;;;;;;;9.33;5.20;;;6.30;99.90;;;;;;5033094;28;20618;-70
2022/01/07 07:43:35;;;;;;;10.40;5.43;;;6.20;99.90;;;;;;5032585;28;20767;-70
2022/01/07 07:46:01;;;;;;;8.10;5.23;;;6.10;99.90;;;;;;5032773;28;20343;-70
2022/01/07 07:48:26;;;;;;;13.63;5.77;;;6.00;99.90;;;;;;5032619;28;20181;-69
2022/01/07 07:50:52;;;;;;;9.37;5.40;;;6.10;99.90;;;;;;5031267;28;20180;-71
2022/01/07 07:53:18;;;;;;;9.07;5.43;;;6.00;99.90;;;;;;5031814;28;20252;-69
2022/01/07 07:55:53;;;;;;;8.03;6.03;;;6.10;99.90;;;;;;5032270;28;20177;-70
2022/01/07 07:58:22;;;;;;;8.93;5.67;;;6.20;99.90;;;;;;5032720;28;20253;-69
2022/01/07 08:00:48;;;;;;;7.10;6.07;;;6.10;99.90;;;;;;5033046;28;20641;-69
2022/01/07 08:03:14;;;;;;;7.93;5.60;;;6.20;99.90;;;;;;5031442;28;20209;-68
2022/01/07 08:05:40;;;;;;;6.73;5.50;;;6.20;99.90;;;;;;5032106;28;20178;-70
2022/01/07 08:08:06;;;;;;;8.70;5.33;;;6.30;99.90;;;;;;5032088;28;20696;-69
2022/01/07 08:10:35;;;;;;;9.77;5.43;;;6.40;99.90;;;;;;5032602;28;20204;-69
2022/01/07 08:18:23;;;;;;;6.00;5.17;;;6.30;99.90;;;;;;5032028;28;20640;-69
2022/01/07 08:20:50;;;;;;;6.97;5.33;;;6.30;99.90;;;;;;5031224;28;20170;-69
2022/01/07 08:23:16;;;;;;;7.90;5.40;;;6.30;99.90;;;;;;5032549;28;20640;-69
2022/01/07 08:25:42;;;;;;;7.70;5.23;;;6.40;99.90;;;;;;5032201;28;20221;-69
2022/01/07 08:28:09;;;;;;;5.20;4.70;;;6.40;99.90;;;;;;5031919;28;20177;-69
2022/01/07 08:30:57;;;;;;;7.17;4.80;;;6.30;99.90;;;;;;5032062;28;20180;-69
2022/01/07 08:36:13;;;;;;;6.50;4.73;;;6.40;99.90;;;;;;5032341;28;20180;-69
2022/01/07 08:38:42;;;;;;;6.43;4.53;;;6.50;99.90;;;;;;5032507;28;20181;-70
2022/01/07 08:41:08;;;;;;;6.93;4.17;;;6.50;99.90;;;;;;5031652;28;20184;-69
2022/01/07 08:43:34;;;;;;;5.50;4.00;;;6.60;99.90;;;;;;5031823;28;20182;-69
2022/01/07 08:46:04;;;;;;;8.77;4.93;;;6.60;99.90;;;;;;5031849;28;20254;-70
2022/01/07 08:48:33;;;;;;;7.63;4.20;;;6.60;99.90;;;;;;5031393;28;20192;-69
2022/01/07 08:50:59;;;;;;;7.17;4.17;;;6.70;99.90;;;;;;5032351;28;20174;-68
2022/01/07 08:53:25;;;;;;;7.83;4.10;;;6.80;99.90;;;;;;5031591;28;20579;-69
2022/01/07 08:55:50;;;;;;;5.60;3.53;;;6.80;99.90;;;;;;5032204;28;20177;-68
2022/01/07 08:58:16;;;;;;;7.37;4.03;;;6.70;99.90;;;;;;5032106;28;20537;-70
2022/01/07 09:00:42;;;;;;;4.87;4.20;;;6.70;99.90;;;;;;5032178;28;20902;-71
2022/01/07 09:03:07;;;;;;;7.33;4.17;;;6.70;99.90;;;;;;5031901;28;20650;-69
2022/01/07 09:05:33;;;;;;;7.13;3.63;;;6.70;99.90;;;;;;5032183;28;20268;-69
2022/01/07 09:07:59;;;;;;;7.37;3.87;;;6.60;99.90;;;;;;5032249;28;20530;-69
2022/01/07 09:10:24;;;;;;;5.50;3.90;;;6.60;99.90;;;;;;5031963;28;20240;-69
2022/01/07 09:12:50;;;;;;;8.70;4.13;;;6.60;99.90;;;;;;5031766;28;20205;-69
2022/01/07 09:15:16;;;;;;;10.50;4.30;;;6.60;99.90;;;;;;5030416;28;20174;-70
2022/01/07 09:17:43;;;;;;;8.60;4.63;;;6.70;99.90;;;;;;5034448;28;20177;-69
2022/01/07 09:20:10;;;;;;;9.93;5.00;;;6.60;99.90;;;;;;5035760;28;20174;-70
2022/01/07 09:22:36;;;;;;;8.67;4.30;;;6.60;99.90;;;;;;5034383;28;20178;-69
2022/01/07 09:25:04;;;;;;;7.03;4.30;;;6.60;99.90;;;;;;5034857;28;20348;-70
2022/01/07 09:27:30;;;;;;;8.77;4.30;;;6.60;99.90;;;;;;5035461;28;20177;-70
2022/01/07 09:29:56;;;;;;;9.70;4.57;;;6.60;99.90;;;;;;5033869;28;20518;-70
2022/01/07 09:32:21;;;;;;;8.03;4.67;;;6.60;99.90;;;;;;5035007;28;20240;-70
2022/01/07 09:34:47;;;;;;;9.17;4.57;;;6.60;99.90;;;;;;5035330;28;20339;-70
2022/01/07 09:37:13;;;;;;;11.83;4.30;;;6.60;99.90;;;;;;5035735;28;20178;-69
2022/01/07 09:39:38;;;;;;;12.77;5.13;;;6.60;99.90;;;;;;5035440;28;20178;-70
2022/01/07 09:42:05;;;;;;;9.13;5.00;;;6.60;99.90;;;;;;5035034;28;20165;-70
2022/01/07 09:44:35;;;;;;;8.43;4.33;;;6.60;99.90;;;;;;5034290;28;20173;-70
2022/01/07 09:47:01;;;;;;;9.20;4.73;;;6.50;99.90;;;;;;5034873;28;20177;-70
2022/01/07 09:49:33;;;;;;;6.63;4.50;;;6.60;99.90;;;;;;5035171;28;20174;-71
2022/01/07 09:51:59;;;;;;;10.23;4.30;;;6.60;99.90;;;;;;5034846;28;20178;-70
2022/01/07 09:54:24;;;;;;;9.10;4.77;;;6.70;99.90;;;;;;5034241;28;20223;-70
2022/01/07 09:56:51;;;;;;;11.43;4.83;;;6.60;99.90;;;;;;5034863;28;20174;-69
2022/01/07 09:59:17;;;;;;;11.60;4.97;;;6.50;99.90;;;;;;5034712;28;20176;-69
2022/01/07 10:02:17;;;;;;;9.33;4.50;;;6.60;99.90;;;;;;5034307;28;20180;-70
2022/01/07 10:04:44;;;;;;;9.70;4.37;;;6.70;99.90;;;;;;5034947;28;20216;-69
2022/01/07 10:07:23;;;;;;;8.20;4.60;;;6.70;99.90;;;;;;5035287;28;20178;-70
2022/01/07 10:09:58;;;;;;;9.60;4.80;;;6.70;99.90;;;;;;5034261;28;20177;-71
2022/01/07 10:12:25;;;;;;;8.17;4.47;;;6.80;99.90;;;;;;5032977;28;20213;-70
2022/01/07 10:15:14;;;;;;;12.73;4.63;;;6.90;99.90;;;;;;5034488;28;20244;-70
2022/01/07 10:17:40;;;;;;;11.70;4.10;;;7.30;99.90;;;;;;5034427;28;20170;-69
2022/01/07 10:20:07;;;;;;;6.93;4.23;;;7.50;99.90;;;;;;5034752;28;20220;-71
2022/01/07 10:23:01;;;;;;;8.43;4.40;;;7.50;99.90;;;;;;5034580;28;20244;-70
2022/01/07 10:25:39;;;;;;;7.80;4.30;;;7.40;99.90;;;;;;5033934;28;20228;-72
2022/01/07 10:28:07;;;;;;;8.27;4.53;;;7.30;99.90;;;;;;5031478;28;20593;-71
2022/01/07 10:30:54;;;;;;;8.33;4.03;;;7.30;99.90;;;;;;5034919;28;20209;-70
2022/01/07 10:33:26;;;;;;;11.23;4.37;;;7.20;99.90;;;;;;5034056;28;20348;-71
2022/01/07 10:35:54;;;;;;;5.40;4.07;;;7.20;99.90;;;;;;5034377;28;20197;-71
2022/01/07 10:38:25;;;;;;;6.40;3.90;;;7.30;99.90;;;;;;5034271;28;20264;-70
2022/01/07 10:40:53;;;;;;;6.23;3.80;;;7.30;99.90;;;;;;5034254;28;20653;-69
2022/01/07 10:43:24;;;;;;;8.60;4.20;;;7.40;99.90;;;;;;5033536;28;20180;-70
2022/01/07 10:46:01;;;;;;;8.80;3.93;;;7.40;99.90;;;;;;5033940;28;20252;-71
2022/01/07 10:48:56;;;;;;;9.80;6.17;;;7.30;99.90;;;;;;5034064;28;20193;-69
2022/01/07 10:51:29;;;;;;;6.17;3.90;;;7.10;99.90;;;;;;5033945;28;20174;-69
2022/01/07 10:54:04;;;;;;;7.97;4.00;;;7.00;99.90;;;;;;5033742;28;20263;-68
2022/01/07 10:56:36;;;;;;;8.63;4.40;;;6.90;99.90;;;;;;5033628;28;20217;-69
2022/01/07 10:59:17;;;;;;;6.43;4.33;;;6.80;99.90;;;;;;5034114;28;20174;-69
2022/01/07 11:01:50;;;;;;;6.30;3.80;;;6.80;99.90;;;;;;5033643;28;20174;-69
2022/01/07 11:04:21;;;;;;;7.70;3.70;;;6.70;99.90;;;;;;5033540;28;20656;-70
2022/01/07 11:06:51;;;;;;;8.43;4.03;;;6.60;99.90;;;;;;5033844;28;20574;-69
2022/01/07 11:09:20;;;;;;;7.90;3.40;;;6.50;99.90;;;;;;5033658;28;20177;-70
2022/01/07 11:11:50;;;;;;;7.17;3.73;;;6.30;99.90;;;;;;5032765;28;20664;-71
2022/01/07 11:14:22;;;;;;;5.67;2.60;;;6.20;99.90;;;;;;5033663;28;20214;-72
2022/01/07 11:16:48;;;;;;;3.80;2.90;;;6.00;99.90;;;;;;5033371;28;20205;-71
2022/01/07 11:19:19;;;;;;;3.17;2.90;;;6.00;99.90;;;;;;5032060;28;20248;-72
2022/01/07 11:21:50;;;;;;;4.67;2.97;;;6.00;99.90;;;;;;5033698;28;20170;-70
2022/01/07 11:24:37;;;;;;;4.57;3.40;;;5.90;99.90;;;;;;5032804;28;20241;-70
2022/01/07 11:27:11;;;;;;;6.53;3.70;;;6.00;99.90;;;;;;5033469;28;20260;-71
2022/01/07 11:29:38;;;;;;;7.27;3.43;;;5.90;99.90;;;;;;5033373;28;20177;-71
2022/01/07 11:32:46;;;;;;;6.77;3.90;;;6.00;99.90;;;;;;5032518;28;20601;-70
2022/01/07 11:35:18;;;;;;;7.17;4.00;;;6.00;99.90;;;;;;5033411;28;20178;-70
2022/01/07 11:37:46;;;;;;;5.90;4.17;;;6.00;99.90;;;;;;5033199;28;20371;-70
2022/01/07 11:40:31;;;;;;;6.87;4.33;;;6.10;99.90;;;;;;5032096;28;20185;-70
2022/01/07 11:43:09;;;;;;;6.40;4.23;;;6.20;99.90;;;;;;5032974;28;20249;-71
2022/01/07 11:45:34;;;;;;;9.80;4.57;;;6.20;99.90;;;;;;5033171;28;20296;-72
2022/01/07 11:48:09;;;;;;;5.03;3.90;;;6.20;99.90;;;;;;5031283;28;20201;-70
2022/01/07 11:50:48;;;;;;;6.43;4.27;;;6.30;99.90;;;;;;5032827;28;20169;-70
2022/01/07 11:53:14;;;;;;;7.30;4.60;;;6.40;99.90;;;;;;5032477;28;20257;-71
2022/01/07 11:55:42;;;;;;;12.67;5.17;;;6.40;99.90;;;;;;5032851;28;20231;-69
2022/01/07 11:58:12;;;;;;;5.57;4.30;;;6.50;99.90;;;;;;5033035;28;20170;-70
2022/01/07 12:01:00;;;;;;;8.40;4.50;;;6.60;99.90;;;;;;5032637;28;20214;-72
2022/01/07 12:03:53;;;;;;;6.73;4.70;;;6.50;99.90;;;;;;5031329;28;20214;-70
2022/01/07 12:06:27;;;;;;;6.73;3.90;;;6.60;99.90;;;;;;5032800;28;20618;-70
2022/01/07 12:09:10;;;;;;;4.97;4.33;;;6.60;99.90;;;;;;5032240;28;20579;-71
2022/01/07 12:11:43;;;;;;;4.90;3.60;;;6.70;99.90;;;;;;5032285;28;20174;-70
2022/01/07 12:14:15;;;;;;;6.37;3.80;;;6.70;99.90;;;;;;5032273;28;20213;-70
2022/01/07 12:16:51;;;;;;;8.53;7.67;;;6.70;99.90;;;;;;5032931;28;20174;-70
2022/01/07 12:19:18;;;;;;;6.40;4.57;;;6.70;99.90;;;;;;5032187;28;20308;-71
2022/01/07 12:21:45;;;;;;;4.23;3.83;;;6.70;99.90;;;;;;5032568;28;20170;-70
2022/01/07 12:24:13;;;;;;;99.93;63.50;;;6.80;99.90;;;;;;5030409;28;20213;-71
2022/01/07 12:26:39;;;;;;;53.70;32.37;;;6.80;99.90;;;;;;5032391;28;20170;-70
2022/01/07 12:29:05;;;;;;;78.60;43.90;;;6.90;99.90;;;;;;5033062;28;20507;-71
2022/01/07 12:31:31;;;;;;;82.37;59.50;;;6.90;99.90;;;;;;5032322;28;20169;-71
2022/01/07 12:33:59;;;;;;;8.97;5.10;;;6.90;99.90;;;;;;5032338;28;20206;-72
2022/01/07 12:36:29;;;;;;;5.97;3.73;;;6.90;99.90;;;;;;5031446;28;20293;-71
2022/01/07 12:39:09;;;;;;;5.17;3.40;;;6.80;99.90;;;;;;5032360;28;20188;-71
2022/01/07 12:41:36;;;;;;;9.03;5.23;;;6.70;99.90;;;;;;5032181;28;20540;-71
2022/01/07 12:44:11;;;;;;;7.70;3.67;;;6.60;99.90;;;;;;5032360;28;20174;-72
2022/01/07 12:46:37;;;;;;;7.93;5.47;;;6.60;99.90;;;;;;5032632;28;20173;-71
2022/01/07 12:49:03;;;;;;;4.77;2.60;;;6.70;99.90;;;;;;5031679;28;20174;-72
2022/01/07 12:51:29;;;;;;;4.07;2.50;;;6.70;99.90;;;;;;5032633;28;20185;-70
2022/01/07 12:54:08;;;;;;;6.70;5.03;;;6.50;99.90;;;;;;5034697;28;20213;-73
2022/01/07 12:56:36;;;;;;;6.20;2.50;;;6.50;99.90;;;;;;5035731;28;20184;-71
2022/01/07 12:59:19;;;;;;;4.47;3.97;;;6.60;99.90;;;;;;5035839;28;20169;-73
2022/01/07 13:01:47;;;;;;;9.70;7.37;;;6.50;99.90;;;;;;5036215;28;20201;-71
2022/01/07 13:04:19;;;;;;;3.30;2.10;;;6.50;99.90;;;;;;5036021;28;20188;-70
2022/01/07 13:06:49;;;;;;;3.80;1.47;;;6.50;99.90;;;;;;5035477;28;20172;-71
2022/01/07 13:09:25;;;;;;;1.63;1.17;;;6.50;99.90;;;;;;5034522;28;20630;-71